Time;durP1;ratioP1;P1;durP2;ratioP2;P2;SDS_P1;SDS_P2;PMS_P1;PMS_P2;Temp;Humidity;BMP_temperature;BMP_pressure;BME280_temperature;BME280_humidity;BME280_pressure;Samples;Min_cycle;Max_cycle;Signal;HPM_P1;HPM_P2
2022/12/31 00:00:29;;;;;;;10.02;2.40;;;;;;;11.55;100.00;100045.19;4976855;28;20041;-58
2022/12/31 00:02:54;;;;;;;9.90;2.45;;;;;;;11.18;100.00;99982.00;4994000;28;20420;-59
2022/12/31 00:05:21;;;;;;;10.55;2.60;;;;;;;11.12;100.00;99988.41;4977002;28;20062;-60
2022/12/31 00:07:46;;;;;;;8.32;2.35;;;;;;;11.48;100.00;100035.84;4976940;28;20030;-59
2022/12/31 00:10:12;;;;;;;11.77;2.42;;;;;;;11.47;100.00;100038.59;4976356;28;20045;-60
2022/12/31 00:12:37;;;;;;;10.48;2.42;;;;;;;11.51;100.00;100037.47;4993864;28;20038;-59
2022/12/31 00:15:02;;;;;;;7.60;1.80;;;;;;;11.45;100.00;100045.69;4994065;28;20035;-60
2022/12/31 00:17:28;;;;;;;12.13;2.35;;;;;;;11.19;100.00;99994.25;4993852;28;20061;-58
2022/12/31 00:19:54;;;;;;;8.48;2.10;;;;;;;11.43;100.00;100045.78;4975937;28;20044;-61
2022/12/31 00:22:19;;;;;;;12.75;2.63;;;;;;;10.61;100.00;99911.94;4975837;28;20044;-59
2022/12/31 00:24:44;;;;;;;10.38;2.70;;;;;;;11.18;100.00;100005.72;4993621;28;20038;-59
2022/12/31 00:27:10;;;;;;;8.43;2.55;;;;;;;11.45;100.00;100070.25;4993422;28;20041;-57
2022/12/31 00:29:35;;;;;;;11.68;2.90;;;;;;;11.46;100.00;100068.50;5012651;28;20037;-60
2022/12/31 00:32:00;;;;;;;11.63;2.55;;;;;;;11.46;100.00;100056.16;5013078;28;20038;-61
2022/12/31 00:34:26;;;;;;;12.02;2.63;;;;;;;11.42;100.00;100054.59;5013142;28;20041;-59
2022/12/31 00:36:51;;;;;;;13.63;2.83;;;;;;;11.13;100.00;100007.72;4979045;28;20042;-59
2022/12/31 00:39:17;;;;;;;16.35;3.17;;;;;;;11.41;100.00;100044.16;4994169;28;20080;-59
2022/12/31 00:41:42;;;;;;;11.55;2.78;;;;;;;11.32;100.00;100040.19;5012285;28;20053;-61
2022/12/31 00:44:10;;;;;;;9.88;2.60;;;;;;;11.03;100.00;99991.50;5012713;28;20053;-59
2022/12/31 00:46:36;;;;;;;8.80;2.22;;;;;;;11.07;100.00;99997.47;4995245;28;20064;-59
2022/12/31 00:49:01;;;;;;;10.20;2.30;;;;;;;11.29;100.00;100035.88;4994915;28;20397;-59
2022/12/31 00:51:27;;;;;;;12.63;2.85;;;;;;;11.13;100.00;99999.81;4995441;28;20488;-60
2022/12/31 00:53:52;;;;;;;14.23;3.28;;;;;;;11.09;100.00;100009.63;4979153;28;20036;-59
2022/12/31 00:56:20;;;;;;;11.82;3.03;;;;;;;11.20;100.00;100028.44;4994522;28;20038;-60
2022/12/31 00:58:47;;;;;;;13.65;2.22;;;;;;;11.30;100.00;100060.44;5012428;28;20117;-59
2022/12/31 01:01:17;;;;;;;10.80;2.60;;;;;;;11.03;100.00;99999.38;5012094;28;20053;-59
2022/12/31 01:03:42;;;;;;;12.35;2.85;;;;;;;11.05;100.00;99997.56;5012663;28;20030;-60
2022/12/31 01:06:08;;;;;;;13.38;2.85;;;;;;;11.28;100.00;100039.47;4994851;28;20128;-59
2022/12/31 01:08:34;;;;;;;9.77;2.65;;;;;;;11.12;100.00;100022.66;5012331;28;20034;-60
2022/12/31 01:11:18;;;;;;;8.02;1.92;;;;;;;10.95;100.00;99984.88;4994804;28;20034;-61
2022/12/31 01:14:07;;;;;;;13.80;2.95;;;;;;;11.24;100.00;100029.13;4994944;28;20137;-60
2022/12/31 01:16:38;;;;;;;14.20;2.65;;;;;;;11.25;100.00;100030.84;5003368;28;20042;-60
2022/12/31 01:19:06;;;;;;;10.07;2.55;;;;;;;11.22;100.00;100029.22;5012501;28;20532;-59
2022/12/31 01:21:33;;;;;;;12.18;3.28;;;;;;;10.93;100.00;99984.09;5012524;28;20037;-59
2022/12/31 01:23:59;;;;;;;8.38;3.05;;;;;;;11.20;100.00;100036.34;4994912;28;20042;-62
2022/12/31 01:26:24;;;;;;;7.82;2.20;;;;;;;11.23;100.00;100040.59;4994819;28;20378;-61
2022/12/31 01:28:50;;;;;;;8.10;1.70;;;;;;;11.24;100.00;100035.25;5012342;28;20081;-59
2022/12/31 01:31:16;;;;;;;5.07;1.38;;;;;;;11.15;100.00;100021.66;5011034;28;20040;-59
2022/12/31 01:33:42;;;;;;;9.70;2.25;;;;;;;11.22;100.00;100049.44;4994963;28;20038;-59
2022/12/31 01:36:11;;;;;;;16.33;2.63;;;;;;;10.82;100.00;99971.47;4994797;28;20030;-59
2022/12/31 01:38:38;;;;;;;5.72;1.80;;;;;;;11.09;100.00;100032.50;5012376;28;20034;-60
2022/12/31 01:41:04;;;;;;;7.18;1.85;;;;;;;10.78;100.00;99993.59;5012212;28;20092;-59
2022/12/31 01:43:55;;;;;;;8.32;2.00;;;;;;;11.02;100.00;100033.72;5012090;28;20071;-61
2022/12/31 01:46:23;;;;;;;8.85;1.85;;;;;;;11.05;100.00;100046.75;4995228;28;20041;-59
2022/12/31 01:48:50;;;;;;;5.18;2.00;;;;;;;11.01;100.00;100043.38;5011989;28;20397;-59
2022/12/31 01:51:16;;;;;;;5.40;1.88;;;;;;;10.68;100.00;100000.22;4994469;28;20137;-59
2022/12/31 01:53:42;;;;;;;5.68;1.98;;;;;;;10.71;100.00;99989.53;4994701;28;20488;-60
2022/12/31 01:56:08;;;;;;;6.70;2.05;;;;;;;10.94;100.00;100030.59;4994381;28;20112;-61
2022/12/31 01:58:39;;;;;;;5.35;1.42;;;;;;;10.93;100.00;100029.72;5011825;28;20520;-60
2022/12/31 02:01:06;;;;;;;7.65;1.88;;;;;;;10.72;100.00;99992.09;4994653;28;20474;-60
2022/12/31 02:03:32;;;;;;;8.43;2.13;;;;;;;10.83;100.00;100019.72;5012058;28;20026;-60
2022/12/31 02:06:04;;;;;;;4.63;1.40;;;;;;;10.82;100.00;100046.94;4994381;28;20448;-60
2022/12/31 02:08:30;;;;;;;9.60;1.92;;;;;;;10.58;100.00;100017.34;4994409;28;20420;-59
2022/12/31 02:10:55;;;;;;;13.57;2.15;;;;;;;10.49;100.00;100008.06;5011741;28;20030;-60
2022/12/31 02:13:21;;;;;;;8.07;2.33;;;;;;;10.39;100.00;100003.31;4994265;28;20030;-59
2022/12/31 02:16:05;;;;;;;6.90;1.70;;;;;;;10.76;100.00;100060.38;4994116;28;20022;-59
2022/12/31 02:18:45;;;;;;;6.57;1.63;;;;;;;10.37;100.00;100008.63;5012053;28;20113;-58
2022/12/31 02:21:19;;;;;;;15.50;2.60;;;;;;;10.69;100.00;100068.56;4994393;28;20030;-59
2022/12/31 02:23:50;;;;;;;9.77;2.60;;;;;;;10.74;100.00;100092.88;5012013;28;20272;-60
2022/12/31 02:27:02;;;;;;;10.20;1.88;;;;;;;10.71;100.00;100061.44;5011766;28;20397;-59
2022/12/31 02:29:50;;;;;;;6.32;1.85;;;;;;;10.69;100.00;100065.94;4949178;28;20046;-59
2022/12/31 02:32:20;;;;;;;13.13;2.47;;;;;;;10.35;100.00;100014.88;5011857;28;20045;-59
2022/12/31 02:34:50;;;;;;;8.45;2.10;;;;;;;10.56;100.00;100056.03;5011988;28;20065;-59
2022/12/31 02:37:17;;;;;;;5.25;1.83;;;;;;;10.56;100.00;100050.75;4993889;28;20046;-59
2022/12/31 02:39:43;;;;;;;8.63;1.88;;;;;;;10.38;100.00;100022.63;5011470;28;20374;-59
2022/12/31 02:42:10;;;;;;;12.90;2.42;;;;;;;10.31;100.00;100021.19;4994955;28;20034;-60
2022/12/31 02:44:37;;;;;;;12.60;2.17;;;;;;;10.38;100.00;100027.91;4997566;28;20124;-61
2022/12/31 02:47:09;;;;;;;11.00;1.75;;;;;;;10.59;100.00;100072.53;4997425;28;20454;-59
2022/12/31 02:50:12;;;;;;;11.05;2.28;;;;;;;10.56;100.00;100067.41;5015146;28;20038;-59
2022/12/31 02:52:46;;;;;;;11.75;2.20;;;;;;;10.51;100.00;100082.53;5014887;28;20042;-59
2022/12/31 02:55:20;;;;;;;14.57;2.28;;;;;;;10.40;100.00;100070.75;5014694;28;20070;-58
2022/12/31 02:57:54;;;;;;;14.88;2.67;;;;;;;10.15;100.00;100049.94;5015029;28;20042;-58
2022/12/31 03:03:04;;;;;;;8.57;1.60;;;;;;;10.33;100.00;100083.34;5000038;28;20076;-59
2022/12/31 03:05:33;;;;;;;8.63;1.55;;;;;;;10.30;100.00;100096.63;4997402;28;20037;-59
2022/12/31 03:07:58;;;;;;;13.30;2.05;;;;;;;10.23;100.00;100084.66;4997293;28;20471;-58
2022/12/31 03:10:23;;;;;;;7.07;1.50;;;;;;;10.29;100.00;100094.06;5014535;28;20202;-59
2022/12/31 03:12:50;;;;;;;5.40;1.50;;;;;;;10.02;100.00;100046.94;5014734;28;20052;-60
2022/12/31 03:15:20;;;;;;;8.07;1.45;;;;;;;10.23;100.00;100081.16;4996753;28;20124;-59
2022/12/31 03:18:02;;;;;;;7.97;1.40;;;;;;;9.83;100.00;100040.78;5014061;28;20112;-60
2022/12/31 03:23:29;;;;;;;7.40;1.33;;;;;;;9.96;100.00;100060.34;5014497;28;20095;-60
2022/12/31 03:25:55;;;;;;;9.50;1.52;;;;;;;9.65;100.00;100020.50;5014447;28;20041;-60
2022/12/31 03:28:23;;;;;;;5.18;1.20;;;;;;;9.99;100.00;100080.41;4996350;28;20397;-60
2022/12/31 03:30:54;;;;;;;6.82;1.83;;;;;;;9.96;100.00;100062.97;5013794;28;20037;-61
2022/12/31 03:33:20;;;;;;;;;;;;;;;9.95;100.00;100063.06;5014652;28;20034;-60
2022/12/31 03:35:46;;;;;;;15.68;2.10;;;;;;;9.67;100.00;100021.28;5014069;28;20262;-59
2022/12/31 03:38:12;;;;;;;15.88;2.13;;;;;;;9.88;100.00;100048.44;5013730;28;20064;-60
2022/12/31 03:40:40;;;;;;;5.07;1.20;;;;;;;9.85;100.00;100051.19;5014306;28;20058;-59
2022/12/31 03:43:06;;;;;;;5.18;1.33;;;;;;;9.45;100.00;99995.06;5014217;28;20069;-60
2022/12/31 03:45:31;;;;;;;10.70;1.50;;;;;;;9.82;100.00;100040.81;5014064;28;20065;-59
2022/12/31 03:47:56;;;;;;;7.57;1.40;;;;;;;9.77;100.00;100027.03;5013950;28;20141;-59
2022/12/31 03:50:22;;;;;;;10.13;1.42;;;;;;;9.45;100.00;99971.41;5014539;28;20084;-59
2022/12/31 03:52:47;;;;;;;7.47;1.27;;;;;;;9.78;100.00;100049.78;5013986;28;20038;-59
2022/12/31 03:55:13;;;;;;;7.30;1.20;;;;;;;9.71;100.00;100041.28;4995426;28;20050;-59
2022/12/31 03:57:39;;;;;;;6.30;1.27;;;;;;;9.73;100.00;100042.06;4996277;28;20046;-59
2022/12/31 04:00:07;;;;;;;8.25;1.45;;;;;;;9.75;100.00;100047.25;5013858;28;20030;-59
2022/12/31 04:02:32;;;;;;;6.43;1.30;;;;;;;9.70;100.00;100038.69;5013662;28;20025;-59
2022/12/31 04:04:58;;;;;;;9.98;2.22;;;;;;;9.80;100.00;100059.28;5013866;28;20172;-60
2022/12/31 04:07:23;;;;;;;7.05;1.48;;;;;;;9.79;100.00;100051.44;5013542;28;20045;-59
2022/12/31 04:09:48;;;;;;;4.25;1.65;;;;;;;9.82;100.00;100053.97;5013571;28;20481;-60
2022/12/31 04:12:14;;;;;;;11.48;2.83;;;;;;;9.48;100.00;99994.94;5013750;28;20062;-60
2022/12/31 04:14:39;;;;;;;9.00;2.90;;;;;;;9.56;100.00;100011.22;5013636;28;20033;-60
2022/12/31 04:17:04;;;;;;;6.13;2.70;;;;;;;9.82;100.00;100062.69;4979788;28;20041;-60
2022/12/31 04:19:30;;;;;;;14.50;3.92;;;;;;;9.79;100.00;100054.09;4995784;28;20037;-59
2022/12/31 04:21:56;;;;;;;8.77;3.78;;;;;;;9.86;100.00;100063.44;4995533;28;20104;-59
2022/12/31 04:24:21;;;;;;;9.38;3.65;;;;;;;9.88;100.00;100065.09;5013236;28;20057;-59
2022/12/31 04:26:46;;;;;;;10.13;3.72;;;;;;;9.66;100.00;100010.84;5013509;28;20324;-59
2022/12/31 04:29:12;;;;;;;10.80;3.50;;;;;;;9.91;100.00;100057.06;5013384;28;20485;-59
2022/12/31 04:31:37;;;;;;;12.25;3.85;;;;;;;9.93;100.00;100057.84;5013141;28;20103;-60
2022/12/31 04:34:02;;;;;;;9.18;3.83;;;;;;;9.76;100.00;100034.03;5013702;28;20104;-59
2022/12/31 04:36:28;;;;;;;11.00;4.00;;;;;;;9.91;100.00;100062.31;5013263;28;20113;-60
2022/12/31 04:38:53;;;;;;;6.88;3.65;;;;;;;9.63;100.00;100004.78;5012987;28;20042;-61
2022/12/31 04:41:19;;;;;;;8.38;3.60;;;;;;;9.63;100.00;100001.31;5013055;28;20046;-60
2022/12/31 04:43:50;;;;;;;7.13;4.35;;;;;;;9.57;100.00;99984.03;5013168;28;20037;-58
2022/12/31 04:46:17;;;;;;;9.38;3.97;;;;;;;10.03;100.00;100058.31;4995427;28;20037;-59
2022/12/31 04:48:43;;;;;;;10.95;4.88;;;;;;;9.68;100.00;100004.63;5013005;28;20057;-60
2022/12/31 04:51:08;;;;;;;14.57;5.95;;;;;;;9.96;100.00;100048.97;5013151;28;20497;-60
2022/12/31 04:53:34;;;;;;;12.23;7.93;;;;;;;9.94;100.00;100063.97;4995300;28;20064;-60
2022/12/31 04:55:59;;;;;;;12.38;9.60;;;;;;;9.99;100.00;100062.00;5013028;28;20026;-60
2022/12/31 04:58:25;;;;;;;13.65;9.43;;;;;;;9.97;100.00;100051.56;5012716;28;20177;-59
2022/12/31 05:00:53;;;;;;;12.95;9.05;;;;;;;9.96;100.00;100049.84;5012800;28;20041;-59
2022/12/31 05:03:18;;;;;;;11.85;9.48;;;;;;;9.69;100.00;100008.94;4995570;28;20033;-58
2022/12/31 05:05:44;;;;;;;14.27;10.18;;;;;;;9.84;100.00;100039.81;5012581;28;20120;-60
2022/12/31 05:08:10;;;;;;;11.38;7.78;;;;;;;9.97;100.00;100072.59;5012454;28;20030;-59
2022/12/31 05:10:35;;;;;;;10.65;8.30;;;;;;;9.91;100.00;100046.56;5012652;28;20060;-59
2022/12/31 05:13:01;;;;;;;14.23;8.93;;;;;;;9.86;100.00;100030.13;5012723;28;20424;-59
2022/12/31 05:15:26;;;;;;;11.18;8.18;;;;;;;10.01;100.00;100047.03;4994848;28;20065;-59
2022/12/31 05:17:52;;;;;;;12.43;9.05;;;;;;;9.90;100.00;100020.31;4994777;28;20046;-59
2022/12/31 05:20:17;;;;;;;11.95;8.65;;;;;;;9.89;100.00;100016.84;4994895;28;20045;-58
2022/12/31 05:22:42;;;;;;;11.93;8.88;;;;;;;9.89;100.00;100018.63;5012366;28;20036;-59
2022/12/31 05:25:08;;;;;;;11.73;8.90;;;;;;;9.97;100.00;100025.25;5012579;28;20034;-60
2022/12/31 05:27:34;;;;;;;12.98;8.88;;;;;;;9.94;100.00;100008.75;5012575;28;20046;-60
2022/12/31 05:29:59;;;;;;;12.32;9.02;;;;;;;9.97;100.00;99985.81;5012282;28;20030;-59
2022/12/31 05:32:24;;;;;;;10.07;8.05;;;;;;;10.00;100.00;99982.22;5012379;28;20433;-59
2022/12/31 05:34:50;;;;;;;10.73;8.23;;;;;;;10.39;100.00;100043.59;4994777;28;20034;-58
2022/12/31 05:37:15;;;;;;;11.27;8.35;;;;;;;10.41;100.00;100035.66;4978355;28;20397;-60
2022/12/31 05:39:40;;;;;;;10.10;7.50;;;;;;;10.52;100.00;100054.44;5011986;28;20148;-59
2022/12/31 05:42:06;;;;;;;8.95;6.90;;;;;;;10.61;100.00;100056.66;5012292;28;20069;-59
2022/12/31 05:44:31;;;;;;;11.05;7.97;;;;;;;10.60;100.00;100042.66;5012364;28;20113;-58
2022/12/31 05:46:56;;;;;;;11.30;7.40;;;;;;;10.64;100.00;100044.22;4978392;28;20077;-59
2022/12/31 05:49:22;;;;;;;10.93;7.47;;;;;;;10.64;100.00;100048.63;5012179;28;20117;-59
2022/12/31 05:51:47;;;;;;;10.43;6.97;;;;;;;10.66;100.00;100052.91;5012011;28;20034;-60
2022/12/31 05:54:12;;;;;;;8.93;6.85;;;;;;;10.72;100.00;100047.38;5012498;28;20034;-60
2022/12/31 05:56:38;;;;;;;6.78;6.00;;;;;;;10.77;100.00;100049.78;5012420;28;20049;-60
2022/12/31 05:59:03;;;;;;;6.68;5.68;;;;;;;10.83;100.00;100059.19;5012021;28;20037;-60
2022/12/31 06:01:28;;;;;;;8.10;6.00;;;;;;;10.56;100.00;100006.88;5011989;28;20042;-59
2022/12/31 06:03:53;;;;;;;8.27;5.72;;;;;;;10.91;100.00;100059.69;4978302;28;20030;-60
2022/12/31 06:06:19;;;;;;;8.85;6.28;;;;;;;10.93;100.00;100055.19;5011761;28;20037;-59
2022/12/31 06:08:48;;;;;;;9.18;6.43;;;;;;;10.93;100.00;100063.09;5012164;28;20041;-59
2022/12/31 06:11:14;;;;;;;10.40;7.07;;;;;;;10.88;100.00;100050.16;4994308;28;20034;-59
2022/12/31 06:13:39;;;;;;;11.85;7.57;;;;;;;11.02;100.00;100058.28;5011925;28;20042;-60
2022/12/31 06:16:08;;;;;;;10.00;6.95;;;;;;;11.05;100.00;100058.13;4994425;28;20092;-60
2022/12/31 06:18:34;;;;;;;6.78;5.35;;;;;;;10.93;100.00;100010.44;5015061;28;20030;-59
2022/12/31 06:20:59;;;;;;;5.38;4.82;;;;;;;11.13;100.00;100048.09;5015648;28;20386;-59
2022/12/31 06:23:25;;;;;;;4.60;4.20;;;;;;;11.15;100.00;100026.94;5015826;28;20046;-58
2022/12/31 06:25:50;;;;;;;5.50;4.00;;;;;;;11.43;100.00;100069.50;5015962;28;20038;-59
2022/12/31 06:28:15;;;;;;;3.83;3.50;;;;;;;11.50;100.00;100062.16;5015670;28;20041;-59
2022/12/31 06:30:41;;;;;;;4.18;3.78;;;;;;;11.34;100.00;100005.84;4997775;28;20030;-59
2022/12/31 06:33:06;;;;;;;5.20;3.70;;;;;;;11.56;100.00;100062.69;5015469;28;20560;-59
2022/12/31 06:35:32;;;;;;;4.53;4.07;;;;;;;11.32;100.00;100010.34;4997780;28;20037;-60
2022/12/31 06:37:57;;;;;;;4.07;3.78;;;;;;;11.64;100.00;100042.09;4998014;28;20040;-59
2022/12/31 06:40:22;;;;;;;4.25;3.90;;;;;;;11.71;100.00;100051.44;5014946;28;20053;-58
2022/12/31 06:42:48;;;;;;;5.72;3.70;;;;;;;11.74;100.00;100045.16;5015180;28;20042;-59
2022/12/31 06:45:13;;;;;;;4.00;3.50;;;;;;;11.27;100.00;99960.47;4997739;28;20496;-60
2022/12/31 06:47:38;;;;;;;4.00;3.70;;;;;;;11.82;100.00;100050.91;5015064;28;20036;-58
2022/12/31 06:50:05;;;;;;;3.80;3.50;;;;;;;11.81;100.00;100046.56;5015000;28;20493;-57
2022/12/31 06:52:31;;;;;;;3.20;2.97;;;;;;;11.94;100.00;100060.81;5015281;28;20030;-60
2022/12/31 06:54:56;;;;;;;3.50;3.03;;;;;;;11.68;100.00;100021.69;5014984;28;20056;-59
2022/12/31 06:57:22;;;;;;;3.22;2.95;;;;;;;11.99;100.00;100056.19;5015151;28;20458;-60
2022/12/31 06:59:48;;;;;;;2.33;2.13;;;;;;;12.02;100.00;100071.88;5015136;28;20064;-58
2022/12/31 07:02:23;;;;;;;2.83;1.77;;;;;;;12.00;100.00;100046.47;5014961;28;20077;-59
2022/12/31 07:04:51;;;;;;;2.53;1.40;;;;;;;12.12;100.00;100074.88;5014882;28;20048;-61
2022/12/31 07:07:37;;;;;;;2.65;1.30;;;;;;;12.12;100.00;100083.66;5015062;28;20033;-59
2022/12/31 07:10:30;;;;;;;0.95;0.80;;;;;;;12.12;100.00;100088.06;5014152;28;20049;-62
2022/12/31 07:13:18;;;;;;;2.67;1.00;;;;;;;12.16;100.00;100068.53;4996819;28;20444;-56
2022/12/31 07:16:19;;;;;;;2.28;1.05;;;;;;;12.21;100.00;100080.53;5014564;28;20061;-59
2022/12/31 07:19:23;;;;;;;1.88;1.00;;;;;;;12.21;100.00;100083.19;4997034;28;20033;-59
2022/12/31 07:21:53;;;;;;;6.10;1.30;;;;;;;11.89;100.00;100022.44;4971491;28;20042;-59
2022/12/31 07:24:18;;;;;;;3.22;0.90;;;;;;;12.27;100.00;100071.47;4997297;28;20115;-59
2022/12/31 07:27:00;;;;;;;2.17;1.00;;;;;;;12.25;100.00;100084.75;4997011;28;20061;-59
2022/12/31 07:29:44;;;;;;;1.88;0.90;;;;;;;12.28;100.00;100089.00;4979066;28;20400;-57
2022/12/31 07:32:48;;;;;;;2.33;0.90;;;;;;;12.31;100.00;100092.34;5014546;28;20038;-57
2022/12/31 07:35:19;;;;;;;2.67;1.15;;;;;;;12.32;100.00;100086.13;4992562;28;20046;-59
2022/12/31 07:37:55;;;;;;;;;;;;;;;12.33;100.00;100086.97;5014580;28;20040;-58
2022/12/31 07:40:42;;;;;;;3.67;1.25;;;;;;;12.32;100.00;100091.41;5011711;28;19924;-60
2022/12/31 07:43:17;;;;;;;2.45;1.10;;;;;;;12.31;100.00;100087.06;5013925;28;20049;-58
2022/12/31 07:46:00;;;;;;;0.98;0.70;;;;;;;12.02;100.00;100034.94;4996369;28;20033;-60
2022/12/31 07:48:27;;;;;;;2.35;1.20;;;;;;;12.30;100.00;100079.22;5013860;28;20065;-57
2022/12/31 07:50:54;;;;;;;2.42;0.80;;;;;;;12.19;100.00;100060.44;4996884;28;20065;-59
2022/12/31 07:53:21;;;;;;;4.30;0.95;;;;;;;12.27;100.00;100103.13;4996847;28;20401;-58
2022/12/31 07:55:51;;;;;;;1.55;0.75;;;;;;;12.22;100.00;100099.88;5014161;28;20076;-58
2022/12/31 07:58:21;;;;;;;2.60;0.82;;;;;;;12.14;100.00;100081.78;4996039;28;20053;-59
2022/12/31 08:00:46;;;;;;;3.95;1.15;;;;;;;12.01;100.00;100053.47;4995703;28;20491;-59
2022/12/31 08:03:14;;;;;;;3.15;0.70;;;;;;;12.23;100.00;100064.66;4996297;28;20113;-58
2022/12/31 08:05:51;;;;;;;4.13;0.90;;;;;;;12.19;100.00;100063.09;4996271;28;20378;-58
2022/12/31 08:08:37;;;;;;;4.95;0.85;;;;;;;12.27;100.00;100114.53;4995823;28;20061;-58
2022/12/31 08:11:11;;;;;;;4.25;1.13;;;;;;;12.27;100.00;100111.03;5013438;28;20034;-58
2022/12/31 08:13:39;;;;;;;3.65;1.20;;;;;;;12.08;100.00;100083.88;5013750;28;20037;-58
2022/12/31 08:16:09;;;;;;;3.60;0.82;;;;;;;12.29;100.00;100123.22;4995593;28;20034;-56
2022/12/31 08:18:35;;;;;;;3.63;1.42;;;;;;;12.22;100.00;100123.63;5013140;28;20125;-58
2022/12/31 08:21:18;;;;;;;7.32;1.17;;;;;;;11.95;100.00;100066.97;5013032;28;20062;-58
2022/12/31 08:23:53;;;;;;;6.18;1.20;;;;;;;11.92;100.00;100049.50;5012128;28;20091;-58
2022/12/31 08:26:37;;;;;;;3.65;1.00;;;;;;;12.30;100.00;100129.34;5012377;28;20480;-57
2022/12/31 08:29:24;;;;;;;4.43;1.27;;;;;;;12.34;100.00;100115.94;4995355;28;20029;-57
2022/12/31 08:32:35;;;;;;;8.45;1.38;;;;;;;12.39;100.00;100150.00;5012775;28;20072;-54
2022/12/31 08:35:26;;;;;;;4.87;1.67;;;;;;;12.18;100.00;100099.16;4984241;28;20046;-57
2022/12/31 08:37:58;;;;;;;6.05;1.88;;;;;;;12.53;100.00;100173.06;4995391;28;20049;-57
2022/12/31 08:41:04;;;;;;;3.88;1.67;;;;;;;12.64;100.00;100171.56;4994814;28;20171;-57
2022/12/31 08:43:48;;;;;;;7.53;1.65;;;;;;;12.74;100.00;100180.75;4995273;28;20087;-56
2022/12/31 08:46:49;;;;;;;5.63;1.27;;;;;;;12.79;100.00;100170.78;4995393;28;20117;-57
2022/12/31 08:49:14;;;;;;;3.00;1.35;;;;;;;12.84;100.00;100171.41;4989711;28;20053;-57
2022/12/31 08:51:40;;;;;;;5.30;1.50;;;;;;;12.60;100.00;100125.16;4995113;28;20085;-57
2022/12/31 08:54:08;;;;;;;6.75;1.55;;;;;;;12.94;100.00;100185.84;5012414;28;20433;-57
2022/12/31 08:56:56;;;;;;;5.93;1.65;;;;;;;12.96;100.00;100172.53;5012935;28;20026;-56
2022/12/31 08:59:24;;;;;;;8.27;1.73;;;;;;;13.03;100.00;100162.50;4994850;28;20065;-56
2022/12/31 09:02:07;;;;;;;5.68;1.30;;;;;;;13.09;100.00;100191.28;5012731;28;20038;-57
2022/12/31 09:04:57;;;;;;;6.30;2.15;;;;;;;13.07;100.00;100180.78;5012580;28;20042;-56
2022/12/31 09:07:30;;;;;;;10.85;1.95;;;;;;;13.09;100.00;100191.28;5012203;28;20033;-57
2022/12/31 09:10:04;;;;;;;6.82;2.00;;;;;;;13.12;100.00;100193.78;4994760;28;20449;-56
2022/12/31 09:12:51;;;;;;;9.02;2.17;;;;;;;13.14;100.00;100184.81;5012415;28;20108;-57
2022/12/31 09:15:59;;;;;;;10.13;1.65;;;;;;;13.14;100.00;100182.19;5012348;28;20087;-57
2022/12/31 09:18:25;;;;;;;7.38;2.25;;;;;;;12.91;100.00;100141.09;4932055;29;20055;-57
2022/12/31 09:20:50;;;;;;;7.03;1.58;;;;;;;12.59;100.00;100090.91;4995529;28;20046;-53
2022/12/31 09:23:16;;;;;;;7.32;1.52;;;;;;;13.18;100.00;100209.31;5012271;28;20055;-57
2022/12/31 09:26:24;;;;;;;7.50;1.42;;;;;;;13.07;100.00;100224.84;5012198;28;20037;-60
2022/12/31 09:29:00;;;;;;;6.82;1.98;;;;;;;12.99;100.00;100215.50;4992682;28;20069;-57
2022/12/31 09:31:43;;;;;;;13.45;2.20;;;;;;;12.89;100.00;100216.06;4994342;28;20125;-56
2022/12/31 09:34:14;;;;;;;7.85;1.75;;;;;;;12.85;100.00;100227.72;4994642;28;20030;-60
2022/12/31 09:36:48;;;;;;;8.50;1.75;;;;;;;12.66;100.00;100192.63;4994100;28;20276;-57
2022/12/31 09:39:22;;;;;;;5.22;1.83;;;;;;;12.77;100.00;100200.84;4978235;28;20053;-57
2022/12/31 09:42:32;;;;;;;6.57;1.75;;;;;;;12.84;100.00;100233.97;5009753;28;20099;-57
2022/12/31 09:45:06;;;;;;;5.93;1.70;;;;;;;12.86;100.00;100216.22;4994258;28;20048;-55
2022/12/31 09:47:59;;;;;;;8.50;2.47;;;;;;;12.83;100.00;100225.16;5011505;28;20517;-55
2022/12/31 09:50:27;;;;;;;9.38;2.53;;;;;;;12.83;100.00;100235.75;4993265;28;20527;-57
2022/12/31 09:53:08;;;;;;;8.43;2.15;;;;;;;12.86;100.00;100213.59;5013164;28;20083;-56
2022/12/31 09:55:38;;;;;;;5.93;2.47;;;;;;;12.88;100.00;100235.50;4997718;28;20156;-56
2022/12/31 09:58:23;;;;;;;5.33;1.77;;;;;;;12.91;100.00;100241.47;4997916;28;20030;-60
2022/12/31 10:01:09;;;;;;;4.75;2.00;;;;;;;12.90;100.00;100215.16;5013123;28;20041;-57
2022/12/31 10:03:49;;;;;;;4.53;1.50;;;;;;;13.03;100.00;100210.06;5003834;28;20141;-57
2022/12/31 10:06:23;;;;;;;8.25;2.17;;;;;;;12.94;100.00;100228.13;5011691;28;20386;-55
2022/12/31 10:09:32;;;;;;;4.45;1.63;;;;;;;12.69;100.00;100206.53;5013727;28;20034;-53
2022/12/31 10:12:34;;;;;;;4.32;1.77;;;;;;;13.03;100.00;100257.63;5015452;28;20030;-60
2022/12/31 10:15:24;;;;;;;4.72;1.90;;;;;;;13.05;100.00;100261.91;5015352;28;20037;-58
2022/12/31 10:18:22;;;;;;;3.85;2.15;;;;;;;13.13;100.00;100258.91;4997855;28;20034;-57
2022/12/31 10:20:50;;;;;;;3.90;2.17;;;;;;;13.23;100.00;100281.25;5015252;28;20080;-57
2022/12/31 10:23:31;;;;;;;6.90;1.98;;;;;;;13.26;100.00;100255.53;4997926;28;20525;-57
2022/12/31 10:26:04;;;;;;;5.97;2.10;;;;;;;12.93;100.00;100196.47;5015304;28;20099;-57
2022/12/31 10:28:48;;;;;;;3.60;2.15;;;;;;;13.31;100.00;100272.00;5014716;28;20456;-57
2022/12/31 10:31:23;;;;;;;6.22;2.53;;;;;;;13.35;100.00;100256.84;4998440;28;20507;-57
2022/12/31 10:34:11;;;;;;;5.78;2.20;;;;;;;13.14;100.00;100252.66;5013905;28;20084;-59
2022/12/31 10:36:46;;;;;;;7.97;2.42;;;;;;;13.29;100.00;100286.22;4997370;28;20032;-57
2022/12/31 10:39:43;;;;;;;5.28;2.47;;;;;;;13.28;100.00;100277.44;4997569;28;20092;-58
2022/12/31 10:42:30;;;;;;;5.07;2.05;;;;;;;13.28;100.00;100289.81;4941351;28;20077;-58
2022/12/31 10:45:23;;;;;;;5.97;2.35;;;;;;;13.28;100.00;100277.44;4976028;28;20082;-59
2022/12/31 10:48:23;;;;;;;5.53;2.40;;;;;;;13.29;100.00;100267.72;4975946;28;20035;-54
2022/12/31 10:51:32;;;;;;;7.32;2.55;;;;;;;13.29;100.00;100276.50;4975869;28;20031;-57
2022/12/31 10:54:23;;;;;;;8.82;4.55;;;;;;;13.32;100.00;100273.72;4937862;28;20121;-55
2022/12/31 10:56:48;;;;;;;;;;;;;;;13.35;100.00;100277.97;4974889;28;20126;-55
2022/12/31 10:59:14;;;;;;;5.90;2.50;;;;;;;13.34;100.00;100271.84;4975977;28;20008;-60
2022/12/31 11:01:51;;;;;;;6.68;3.00;;;;;;;13.36;100.00;100292.91;4975743;28;20384;-61
2022/12/31 11:04:16;;;;;;;9.23;4.13;;;;;;;13.33;100.00;100299.22;4974891;28;20513;-60
2022/12/31 11:06:56;;;;;;;4.90;2.90;;;;;;;13.31;100.00;100289.66;4975783;28;20031;-61
2022/12/31 11:10:06;;;;;;;7.05;3.25;;;;;;;13.25;100.00;100285.53;4974649;28;20539;-58
2022/12/31 11:12:49;;;;;;;5.43;1.60;;;;;;;13.23;100.00;100334.13;4915845;29;20047;-58
2022/12/31 11:15:20;;;;;;;5.30;1.45;;;;;;;13.01;100.00;100248.94;4915692;29;20090;-59
2022/12/31 11:18:25;;;;;;;5.07;3.78;;;;;;;13.14;100.00;100287.00;4944825;28;20545;-58
2022/12/31 11:21:17;;;;;;;4.13;3.15;;;;;;;13.01;100.00;100280.63;4975240;28;20074;-59
2022/12/31 11:24:21;;;;;;;7.28;2.90;;;;;;;13.08;100.00;100297.91;4975060;28;20398;-59
2022/12/31 11:27:24;;;;;;;9.18;6.53;;;;;;;13.08;100.00;100295.25;4975549;28;20035;-58
2022/12/31 11:30:34;;;;;;;6.70;2.38;;;;;;;13.02;100.00;100288.47;4975199;28;20105;-59
2022/12/31 11:33:16;;;;;;;5.93;2.22;;;;;;;13.01;100.00;100280.63;4948005;28;20086;-59
2022/12/31 11:36:00;;;;;;;6.70;3.53;;;;;;;13.01;100.00;100291.19;4958253;28;20065;-59
2022/12/31 11:38:30;;;;;;;6.22;3.13;;;;;;;13.01;100.00;100251.56;4974887;28;20070;-58
2022/12/31 11:40:59;;;;;;;7.55;2.70;;;;;;;13.08;100.00;100266.19;4983746;28;20046;-58
2022/12/31 11:43:50;;;;;;;6.15;2.92;;;;;;;13.07;100.00;100259.19;4994631;28;20061;-58
2022/12/31 11:46:25;;;;;;;8.60;3.50;;;;;;;13.11;100.00;100252.81;4993552;28;20474;-59
2022/12/31 11:49:12;;;;;;;6.70;3.80;;;;;;;13.16;100.00;100253.47;4993144;28;20041;-60